createdAt,value
2023-10-31T04:11:15.008Z,0.80
2023-10-31T04:13:56.540Z,0.90
2023-10-31T04:16:32.008Z,0.90
2023-10-31T04:19:05.511Z,0.70
2023-10-31T04:21:43.350Z,0.73
2023-10-31T04:24:16.564Z,0.73
2023-10-31T04:26:53.905Z,0.70
2023-10-31T04:29:32.799Z,0.52
2023-10-31T04:32:04.088Z,0.80
2023-10-31T04:34:34.395Z,0.60
2023-10-31T04:37:06.046Z,0.95
2023-10-31T04:39:55.714Z,0.60
2023-10-31T04:42:34.836Z,0.63
2023-10-31T04:45:06.676Z,0.50
2023-10-31T04:47:39.082Z,0.40
2023-10-31T04:50:10.619Z,0.60
2023-10-31T04:52:41.049Z,0.60
2023-10-31T04:55:17.397Z,0.60
2023-10-31T04:57:51.780Z,0.93
2023-10-31T05:00:23.510Z,0.60
2023-10-31T05:03:07.293Z,0.60
2023-10-31T05:05:40.415Z,0.55
2023-10-31T05:08:10.417Z,0.60
2023-10-31T05:10:41.845Z,0.60
2023-10-31T05:13:14.575Z,0.63
2023-10-31T05:15:46.689Z,0.60
2023-10-31T05:18:24.597Z,0.70
2023-10-31T05:20:57.136Z,0.70
2023-10-31T05:23:28.810Z,0.60
2023-10-31T05:26:01.710Z,0.80
2023-10-31T05:28:30.626Z,0.68
2023-10-31T05:31:01.181Z,0.60
2023-10-31T05:33:32.152Z,0.60
2023-10-31T05:36:03.943Z,0.60
2023-10-31T05:38:35.687Z,0.70
2023-10-31T05:41:16.232Z,0.60
2023-10-31T05:43:52.932Z,0.60
2023-10-31T05:46:24.396Z,0.65
2023-10-31T05:49:00.970Z,0.77
2023-10-31T05:51:37.400Z,0.60
2023-10-31T05:54:26.163Z,0.60
2023-10-31T05:56:59.167Z,0.70
2023-10-31T05:59:30.484Z,0.60
2023-10-31T06:02:17.897Z,0.65
2023-10-31T06:04:50.048Z,1.00
2023-10-31T06:07:20.955Z,0.85
2023-10-31T06:09:49.272Z,0.90
2023-10-31T06:12:17.930Z,0.80
2023-10-31T06:14:46.369Z,0.70
2023-10-31T06:17:16.385Z,0.80
2023-10-31T06:19:46.909Z,0.70
2023-10-31T06:22:15.325Z,0.50
2023-10-31T06:24:43.742Z,0.70
2023-10-31T06:27:12.206Z,0.57
2023-10-31T06:29:50.263Z,0.63
2023-10-31T06:32:30.542Z,0.60
2023-10-31T06:34:58.756Z,0.77
2023-10-31T06:37:27.099Z,0.50
2023-10-31T06:39:56.476Z,0.63
2023-10-31T06:42:25.014Z,0.80
2023-10-31T06:44:53.315Z,0.50
2023-10-31T06:47:21.761Z,0.60
2023-10-31T06:49:51.782Z,0.60
2023-10-31T06:52:20.174Z,0.85
2023-10-31T06:54:48.922Z,0.70
2023-10-31T06:57:17.608Z,0.60
2023-10-31T06:59:45.852Z,0.60
2023-10-31T07:02:15.291Z,0.77
2023-10-31T07:04:43.738Z,0.88
2023-10-31T07:07:13.643Z,0.95
2023-10-31T07:09:42.082Z,0.80
2023-10-31T07:12:12.453Z,0.80
2023-10-31T07:14:40.864Z,1.60
2023-10-31T07:17:09.324Z,10.25
2023-10-31T07:19:38.999Z,3.95
2023-10-31T07:22:07.408Z,1.70
2023-10-31T07:24:38.796Z,10.13
2023-10-31T07:27:07.630Z,2.70
2023-10-31T07:29:35.922Z,0.75
2023-10-31T07:32:04.441Z,0.88
2023-10-31T07:34:32.796Z,0.70
2023-10-31T07:37:05.721Z,0.60
2023-10-31T07:39:34.228Z,1.20
2023-10-31T07:42:45.226Z,1.05
2023-10-31T07:46:04.508Z,0.95
2023-10-31T07:49:05.371Z,0.93
2023-10-31T07:52:08.674Z,1.02
2023-10-31T07:55:09.942Z,0.70
2023-10-31T08:00:59.411Z,0.80
2023-10-31T08:04:13.831Z,7.38
2023-10-31T08:07:28.175Z,5.63
2023-10-31T08:09:59.244Z,1.00
2023-10-31T08:12:29.322Z,5.53
2023-10-31T08:14:59.792Z,3.58
2023-10-31T08:17:27.673Z,2.67
2023-10-31T08:19:56.295Z,1.92
2023-10-31T08:22:24.744Z,2.35
2023-10-31T08:24:52.979Z,4.13
2023-10-31T08:27:21.436Z,2.47
2023-10-31T08:29:49.714Z,5.47
2023-10-31T08:32:19.471Z,4.57
2023-10-31T08:34:47.975Z,3.35
2023-10-31T08:37:16.417Z,6.32
2023-10-31T08:39:45.440Z,5.30
2023-10-31T08:42:13.714Z,5.30
2023-10-31T08:44:43.277Z,3.50
2023-10-31T08:47:14.425Z,1.48
2023-10-31T08:49:45.899Z,1.52
2023-10-31T08:52:14.527Z,4.13
2023-10-31T08:54:42.977Z,3.20
2023-10-31T08:57:11.572Z,6.40
2023-10-31T08:59:43.130Z,6.40
2023-10-31T09:02:11.543Z,5.40
2023-10-31T09:04:39.770Z,4.63
2023-10-31T09:07:10.103Z,12.25
2023-10-31T09:09:41.341Z,7.85
2023-10-31T09:12:10.237Z,3.50
2023-10-31T09:14:38.358Z,4.40
2023-10-31T09:17:06.776Z,2.70
2023-10-31T09:19:35.210Z,2.45
2023-10-31T09:22:03.449Z,1.50
2023-10-31T09:24:33.014Z,1.80
2023-10-31T09:27:01.186Z,1.42
2023-10-31T09:29:30.377Z,1.35
2023-10-31T09:31:59.975Z,1.00
2023-10-31T09:34:28.161Z,0.93
2023-10-31T09:36:57.036Z,1.00
2023-10-31T09:39:29.163Z,1.27
2023-10-31T09:41:59.072Z,1.40
2023-10-31T09:44:26.654Z,1.02
2023-10-31T09:46:59.055Z,1.33
2023-10-31T09:49:28.386Z,1.30
2023-10-31T09:51:58.029Z,1.17
2023-10-31T09:54:28.358Z,1.20
2023-10-31T09:57:02.250Z,1.00
2023-10-31T09:59:31.098Z,1.20
2023-10-31T10:02:02.438Z,1.10
2023-10-31T10:04:32.110Z,1.08
2023-10-31T10:07:04.655Z,1.20
2023-10-31T10:09:33.498Z,1.02
2023-10-31T10:12:04.160Z,1.15
2023-10-31T10:14:33.198Z,0.93
2023-10-31T10:17:01.809Z,1.27
2023-10-31T10:19:30.143Z,1.10
2023-10-31T10:22:03.468Z,1.30
2023-10-31T10:24:32.069Z,1.40
2023-10-31T10:27:00.357Z,1.73
2023-10-31T10:29:32.333Z,1.15
2023-10-31T10:32:00.620Z,1.00
2023-10-31T10:34:28.992Z,1.20
2023-10-31T10:37:00.610Z,1.17
2023-10-31T10:39:32.536Z,1.83
2023-10-31T10:42:03.495Z,1.35
2023-10-31T10:44:36.283Z,1.33
2023-10-31T10:47:06.323Z,1.48
2023-10-31T10:49:37.549Z,1.75
2023-10-31T10:52:19.541Z,1.30
2023-10-31T10:54:52.378Z,0.93
2023-10-31T10:57:32.010Z,1.20
2023-10-31T11:00:07.358Z,1.33
2023-10-31T11:02:37.128Z,1.02
2023-10-31T11:05:08.749Z,0.80
2023-10-31T11:07:37.546Z,1.13
2023-10-31T11:10:10.382Z,0.98
2023-10-31T11:12:41.995Z,1.13
2023-10-31T11:15:14.469Z,0.98
2023-10-31T11:17:44.883Z,0.90
2023-10-31T11:20:15.932Z,0.90
2023-10-31T11:22:46.338Z,1.00
2023-10-31T11:25:23.019Z,1.10
2023-10-31T11:28:12.805Z,1.08
2023-10-31T11:30:43.134Z,0.93
2023-10-31T11:33:16.818Z,0.90
2023-10-31T11:35:47.142Z,1.38
2023-10-31T11:38:15.526Z,0.93
2023-10-31T11:41:02.562Z,1.20
2023-10-31T11:43:53.906Z,0.77
2023-10-31T11:46:26.431Z,1.08
2023-10-31T11:48:57.455Z,0.80
2023-10-31T11:51:26.643Z,0.88
2023-10-31T11:53:55.221Z,0.73
2023-10-31T11:56:24.273Z,0.50
2023-10-31T11:59:00.222Z,0.70
2023-10-31T12:01:31.173Z,0.60
2023-10-31T12:03:59.680Z,0.70
2023-10-31T12:06:28.321Z,1.10
2023-10-31T12:09:03.060Z,0.93
2023-10-31T12:11:33.951Z,1.10
2023-10-31T12:14:06.483Z,0.50
2023-10-31T12:16:36.886Z,0.47
2023-10-31T12:19:06.793Z,0.57
2023-10-31T12:21:39.442Z,0.60
2023-10-31T12:24:09.060Z,0.50
2023-10-31T12:26:37.593Z,0.52
2023-10-31T12:29:13.225Z,0.60
2023-10-31T12:31:50.598Z,0.80
2023-10-31T12:34:20.373Z,0.70
2023-10-31T12:36:50.111Z,0.80
2023-10-31T12:39:23.079Z,0.55
2023-10-31T12:41:51.797Z,0.60
2023-10-31T12:44:26.883Z,0.50
2023-10-31T12:46:57.077Z,0.40
2023-10-31T12:49:26.312Z,0.40
2023-10-31T12:51:59.306Z,0.50
2023-10-31T12:54:31.637Z,0.65
2023-10-31T12:57:02.734Z,0.50
2023-10-31T12:59:31.348Z,0.70
2023-10-31T13:02:01.638Z,0.60
2023-10-31T13:04:30.965Z,0.93
2023-10-31T13:07:00.700Z,0.80
2023-10-31T13:09:32.352Z,0.70
2023-10-31T13:12:03.052Z,0.77
2023-10-31T13:14:31.523Z,0.60
2023-10-31T13:17:01.662Z,0.70
2023-10-31T13:19:30.025Z,0.90
2023-10-31T13:21:58.362Z,0.70
2023-10-31T13:24:26.733Z,0.60
2023-10-31T13:26:55.051Z,0.70
2023-10-31T13:29:26.637Z,0.80
2023-10-31T13:31:55.137Z,0.90
2023-10-31T13:34:25.363Z,0.70
2023-10-31T13:36:55.248Z,1.10
2023-10-31T13:39:25.165Z,0.90
2023-10-31T13:41:53.463Z,0.70
2023-10-31T13:44:22.347Z,0.70
2023-10-31T13:46:50.609Z,0.80
2023-10-31T13:49:18.871Z,0.70
2023-10-31T13:51:50.424Z,1.00
2023-10-31T13:54:18.626Z,0.70
2023-10-31T13:56:47.028Z,1.00
2023-10-31T13:59:15.841Z,0.70
2023-10-31T14:01:44.707Z,0.60
2023-10-31T14:04:14.640Z,0.98
2023-10-31T14:06:43.487Z,1.20
2023-10-31T14:17:31.050Z,0.88
2023-10-31T14:20:02.387Z,0.90
2023-10-31T14:22:31.279Z,0.70
2023-10-31T14:25:06.104Z,0.90
2023-10-31T14:27:37.124Z,0.90
2023-10-31T14:30:07.650Z,1.20
2023-10-31T14:32:39.718Z,1.10
2023-10-31T14:35:09.500Z,1.20
2023-10-31T14:37:38.039Z,1.10
2023-10-31T14:40:09.826Z,1.00
2023-10-31T14:42:38.392Z,0.98
2023-10-31T14:45:07.864Z,1.00
2023-10-31T14:47:40.545Z,0.80
2023-10-31T14:50:09.998Z,0.90
2023-10-31T14:52:38.750Z,1.00
2023-10-31T14:55:08.376Z,1.25
2023-10-31T14:57:39.718Z,1.05
2023-10-31T15:00:10.034Z,0.95
2023-10-31T15:02:40.002Z,0.88
2023-10-31T15:05:10.293Z,0.82
2023-10-31T15:07:39.691Z,0.90
2023-10-31T15:10:09.170Z,0.77
2023-10-31T15:12:37.684Z,0.82
2023-10-31T15:19:03.208Z,0.82
2023-10-31T15:21:31.604Z,0.68
2023-10-31T15:24:00.266Z,0.65
2023-10-31T15:26:30.178Z,0.80
2023-10-31T15:29:01.936Z,1.02
2023-10-31T15:31:30.281Z,0.90
2023-10-31T15:33:58.548Z,0.98
2023-10-31T15:36:30.149Z,0.80
2023-10-31T15:38:58.462Z,1.00
2023-10-31T15:41:27.059Z,0.93
2023-10-31T15:43:55.755Z,0.88
2023-10-31T15:46:24.114Z,1.20
2023-10-31T15:48:52.326Z,1.05
2023-10-31T15:51:23.309Z,1.23
2023-10-31T15:53:52.934Z,1.00
2023-10-31T15:56:21.688Z,1.13
2023-10-31T15:58:50.013Z,1.23
2023-10-31T16:01:18.476Z,1.00
2023-10-31T16:03:52.314Z,1.20
2023-10-31T16:10:12.608Z,1.33
2023-10-31T16:12:59.519Z,1.15
2023-10-31T16:15:50.741Z,1.17
2023-10-31T16:18:41.619Z,0.93
2023-10-31T16:21:29.095Z,0.90
2023-10-31T16:23:59.418Z,0.95
2023-10-31T16:26:29.546Z,1.00
2023-10-31T16:28:58.899Z,1.05
2023-10-31T16:31:28.442Z,1.10
2023-10-31T16:33:59.052Z,1.00
2023-10-31T16:36:27.676Z,1.10
2023-10-31T16:39:03.938Z,0.90
2023-10-31T16:41:42.317Z,0.90
2023-10-31T16:44:18.038Z,3.80
2023-10-31T16:46:47.634Z,1.40
2023-10-31T16:49:20.164Z,1.90
2023-10-31T16:52:01.140Z,1.63
2023-10-31T17:31:30.289Z,2.17
2023-10-31T17:48:51.720Z,2.80
2023-10-31T17:55:10.819Z,2.22
2023-10-31T17:57:39.899Z,3.95
2023-10-31T18:00:10.542Z,3.70
2023-10-31T18:02:54.496Z,3.92
2023-10-31T18:05:45.105Z,10.93
2023-10-31T18:08:30.673Z,6.70
2023-10-31T18:11:13.473Z,13.13
2023-10-31T18:13:53.157Z,10.45
2023-10-31T18:16:29.784Z,7.45
2023-10-31T18:19:10.030Z,12.05
2023-10-31T18:21:48.028Z,8.32
2023-10-31T18:24:21.661Z,8.55
2023-10-31T18:26:59.818Z,2.97
2023-10-31T18:29:34.116Z,7.90
2023-10-31T18:32:04.950Z,8.05
2023-10-31T18:34:36.140Z,7.85
2023-10-31T18:37:16.475Z,3.17
2023-10-31T18:39:48.795Z,3.60
2023-10-31T18:42:27.584Z,0.82
2023-10-31T18:44:56.748Z,1.40
2023-10-31T18:47:31.483Z,1.13
2023-10-31T18:50:09.067Z,1.10
2023-10-31T18:52:45.175Z,0.80
2023-10-31T18:55:21.750Z,0.90
2023-10-31T18:57:56.185Z,0.80
2023-10-31T19:01:21.887Z,1.10
2023-10-31T19:04:03.633Z,1.13
2023-10-31T19:06:47.170Z,0.88
2023-10-31T19:16:08.054Z,1.20
2023-10-31T19:21:53.989Z,0.90
2023-10-31T19:28:12.110Z,1.13
2023-10-31T19:31:23.086Z,1.25
2023-10-31T19:34:24.988Z,1.63
2023-10-31T19:36:56.541Z,1.45
2023-10-31T19:39:28.494Z,1.00
2023-10-31T19:42:00.926Z,1.00
2023-10-31T19:44:30.555Z,1.17
2023-10-31T19:47:00.835Z,0.85
2023-10-31T19:49:29.522Z,0.63
2023-10-31T19:52:00.181Z,0.90
2023-10-31T19:54:30.925Z,0.60
2023-10-31T19:57:01.607Z,0.75
2023-10-31T19:59:30.183Z,0.70
2023-10-31T20:02:04.032Z,0.70
2023-10-31T20:04:32.709Z,0.77
2023-10-31T20:07:01.513Z,0.75
2023-10-31T20:09:30.222Z,0.70
2023-10-31T20:11:58.913Z,0.80
2023-10-31T20:14:31.213Z,0.80
2023-10-31T20:17:01.316Z,0.80
2023-10-31T20:19:35.380Z,0.60
2023-10-31T20:22:05.432Z,0.80
2023-10-31T20:24:34.107Z,0.90
2023-10-31T20:27:02.883Z,0.73
2023-10-31T20:29:39.133Z,0.60
2023-10-31T20:32:09.738Z,0.45
2023-10-31T20:34:38.533Z,0.90
2023-10-31T20:37:10.222Z,0.77
2023-10-31T20:39:40.238Z,0.90
2023-10-31T20:42:10.583Z,0.73
2023-10-31T20:44:40.298Z,0.80
2023-10-31T20:47:11.086Z,0.80
2023-10-31T20:49:42.011Z,0.70
2023-10-31T20:52:10.686Z,0.88
2023-10-31T20:54:41.560Z,0.70
2023-10-31T20:57:10.106Z,0.85
2023-10-31T20:59:40.735Z,0.82
2023-10-31T21:02:11.181Z,0.93
2023-10-31T21:04:45.618Z,0.70
2023-10-31T21:07:17.602Z,0.93
2023-10-31T21:09:49.882Z,0.90
2023-10-31T21:12:20.034Z,0.93
2023-10-31T21:14:49.237Z,0.70
2023-10-31T21:17:21.180Z,0.90
2023-10-31T21:19:51.732Z,0.70
2023-10-31T21:22:22.129Z,0.82
2023-10-31T21:24:51.197Z,0.88
2023-10-31T21:27:23.916Z,0.60
2023-10-31T21:29:52.873Z,0.80
2023-10-31T21:32:23.049Z,0.75
2023-10-31T21:34:51.837Z,0.85
2023-10-31T21:37:20.589Z,0.95
2023-10-31T21:39:52.856Z,0.70
2023-10-31T21:42:24.709Z,0.70
2023-10-31T21:44:53.276Z,0.80
2023-10-31T21:47:26.544Z,0.70
2023-10-31T21:49:58.291Z,0.60
2023-10-31T21:52:29.321Z,0.98
2023-10-31T21:54:59.270Z,0.90
2023-10-31T21:57:30.367Z,1.00
2023-10-31T22:00:04.357Z,0.77
2023-10-31T22:02:34.610Z,0.90
2023-10-31T22:05:05.626Z,0.82
2023-10-31T22:07:48.579Z,0.77
2023-10-31T22:10:24.218Z,1.00
2023-10-31T22:13:00.287Z,0.85
2023-10-31T22:15:33.148Z,1.08
2023-10-31T22:18:08.194Z,0.90
2023-10-31T22:20:36.848Z,0.80
2023-10-31T22:23:08.626Z,0.90
2023-10-31T22:25:38.327Z,0.70
2023-10-31T22:28:07.359Z,0.88
2023-10-31T22:30:38.095Z,0.90
2023-10-31T22:33:08.508Z,0.82
2023-10-31T22:35:37.364Z,0.90
2023-10-31T22:38:06.496Z,0.73
2023-10-31T22:40:35.261Z,0.70
2023-10-31T22:43:03.837Z,1.00
2023-10-31T22:45:32.468Z,1.00
2023-10-31T22:48:01.057Z,0.80
2023-10-31T22:50:30.977Z,0.90
2023-10-31T22:53:00.106Z,0.93
2023-10-31T22:55:29.600Z,0.80
2023-10-31T22:57:58.308Z,0.95
2023-10-31T23:00:29.168Z,0.65
2023-10-31T23:02:59.906Z,0.73
2023-10-31T23:05:28.735Z,0.60
2023-10-31T23:07:59.494Z,0.80
2023-10-31T23:10:28.435Z,0.80
2023-10-31T23:12:57.900Z,1.17
2023-10-31T23:15:26.823Z,0.77
2023-10-31T23:17:55.412Z,1.00
2023-10-31T23:20:26.292Z,0.70
2023-10-31T23:22:55.543Z,0.60
2023-10-31T23:25:26.057Z,1.13
2023-10-31T23:27:57.811Z,0.95
2023-10-31T23:30:26.423Z,0.80
2023-10-31T23:32:55.174Z,0.98
2023-10-31T23:35:23.892Z,0.77
2023-10-31T23:37:53.737Z,0.77
2023-10-31T23:40:22.230Z,1.10
2023-10-31T23:42:52.114Z,0.95
2023-10-31T23:45:22.036Z,1.10
2023-10-31T23:47:50.564Z,0.65
2023-10-31T23:50:19.471Z,1.10
2023-10-31T23:52:48.014Z,1.10
2023-10-31T23:55:17.650Z,1.70
2023-10-31T23:57:46.141Z,1.63
